Time;durP1;ratioP1;P1;durP2;ratioP2;P2;SDS_P1;SDS_P2;PMS_P1;PMS_P2;Temp;Humidity;BMP_temperature;BMP_pressure;BME280_temperature;BME280_humidity;BME280_pressure;Samples;Min_cycle;Max_cycle;Signal;HPM_P1;HPM_P2
2023/06/24 00:00:41;;;;;;;8.00;7.20;;;;;;;;;;5091471;28;20207;-82
2023/06/24 00:03:08;;;;;;;6.93;6.30;;;;;;;;;;5099610;28;20195;-81
2023/06/24 00:05:35;;;;;;;5.87;5.37;;;;;;;;;;5096503;28;20745;-80
2023/06/24 00:08:03;;;;;;;5.80;5.30;;;;;;;;;;5099745;28;20207;-81
2023/06/24 00:10:30;;;;;;;8.27;5.90;;;;;;;;;;5091490;28;20645;-81
2023/06/24 00:13:01;;;;;;;6.57;5.97;;;;;;;;;;5100167;28;20223;-81
2023/06/24 00:15:27;;;;;;;7.37;6.30;;;;;;;;;;5095726;28;20235;-81
2023/06/24 00:18:05;;;;;;;10.50;6.30;;;;;;;;;;5091378;28;20200;-81
2023/06/24 00:20:32;;;;;;;6.20;5.60;;;;;;;;;;5104772;28;20200;-81
2023/06/24 00:22:59;;;;;;;6.17;5.57;;;;;;;;;;5102809;28;20196;-81
2023/06/24 00:25:26;;;;;;;7.33;6.53;;;;;;;;;;5080162;28;20612;-82
2023/06/24 00:27:52;;;;;;;10.53;6.87;;;;;;;;;;5081634;28;20204;-81
2023/06/24 00:30:21;;;;;;;5.97;5.30;;;;;;;;;;5095412;28;20233;-81
2023/06/24 00:32:47;;;;;;;8.40;6.30;;;;;;;;;;5099657;28;20208;-82
2023/06/24 00:35:15;;;;;;;9.00;6.37;;;;;;;;;;5091509;28;20199;-81
2023/06/24 00:37:46;;;;;;;7.27;6.43;;;;;;;;;;5111035;28;20231;-81
2023/06/24 00:40:14;;;;;;;6.80;5.60;;;;;;;;;;5105443;28;20203;-81
2023/06/24 00:42:41;;;;;;;6.03;5.43;;;;;;;;;;5104313;28;20566;-81
2023/06/24 00:45:09;;;;;;;7.47;6.17;;;;;;;;;;5097470;28;20196;-82
2023/06/24 00:47:38;;;;;;;9.17;6.80;;;;;;;;;;5097166;28;20204;-82
2023/06/24 00:50:06;;;;;;;7.10;6.07;;;;;;;;;;5098295;28;20223;-81
2023/06/24 00:52:33;;;;;;;6.43;5.83;;;;;;;;;;5097389;28;20204;-81
2023/06/24 00:55:02;;;;;;;6.93;6.33;;;;;;;;;;5111265;28;20268;-81
2023/06/24 00:57:29;;;;;;;7.27;6.57;;;;;;;;;;5111099;28;20203;-81
2023/06/24 00:59:56;;;;;;;6.40;5.80;;;;;;;;;;5102697;28;20206;-81
2023/06/24 01:02:27;;;;;;;7.37;6.33;;;;;;;;;;5090786;28;20204;-81
2023/06/24 01:04:56;;;;;;;6.80;6.10;;;;;;;;;;5082461;28;20229;-81
2023/06/24 01:07:23;;;;;;;7.87;6.63;;;;;;;;;;5094665;28;20215;-82
2023/06/24 01:09:50;;;;;;;10.27;6.57;;;;;;;;;;5100237;28;20316;-81
2023/06/24 01:12:17;;;;;;;5.77;5.27;;;;;;;;;;5107745;28;20716;-82
2023/06/24 01:14:44;;;;;;;7.30;6.57;;;;;;;;;;5090605;28;20261;-81
2023/06/24 01:17:14;;;;;;;12.47;6.77;;;;;;;;;;5104525;28;20211;-81
2023/06/24 01:19:58;;;;;;;6.20;5.70;;;;;;;;;;5100862;28;20200;-81
2023/06/24 01:22:40;;;;;;;8.03;6.87;;;;;;;;;;5110342;28;20200;-81
2023/06/24 01:25:21;;;;;;;7.10;6.33;;;;;;;;;;5111204;28;20282;-81
2023/06/24 01:28:08;;;;;;;7.10;6.40;;;;;;;;;;5110365;28;20195;-81
2023/06/24 01:31:08;;;;;;;7.43;5.80;;;;;;;;;;5090689;28;20315;-81
2023/06/24 01:33:40;;;;;;;6.23;5.73;;;;;;;;;;5091350;28;20682;-81
2023/06/24 01:36:09;;;;;;;8.03;6.13;;;;;;;;;;5098170;28;20734;-81
2023/06/24 01:38:42;;;;;;;8.00;6.30;;;;;;;;;;5090173;28;21018;-81
2023/06/24 01:41:10;;;;;;;6.30;5.70;;;;;;;;;;5103838;28;20196;-81
2023/06/24 01:43:38;;;;;;;8.67;6.53;;;;;;;;;;5097870;28;20231;-81
2023/06/24 01:46:06;;;;;;;9.43;6.63;;;;;;;;;;5099326;28;20200;-81
2023/06/24 01:48:37;;;;;;;6.90;5.73;;;;;;;;;;5093719;28;20204;-81
2023/06/24 01:51:07;;;;;;;7.03;6.33;;;;;;;;;;5109755;28;20235;-81
2023/06/24 01:53:36;;;;;;;7.10;6.40;;;;;;;;;;5114645;28;20588;-81
2023/06/24 01:56:04;;;;;;;6.87;6.13;;;;;;;;;;5097776;28;20204;-81
2023/06/24 01:58:34;;;;;;;11.43;6.87;;;;;;;;;;5093625;28;20207;-81
2023/06/24 02:01:02;;;;;;;9.43;6.67;;;;;;;;;;5111336;28;20203;-81
2023/06/24 02:03:29;;;;;;;7.13;6.43;;;;;;;;;;5103319;28;20633;-81
2023/06/24 02:05:58;;;;;;;7.33;6.27;;;;;;;;;;5094294;28;20212;-81
2023/06/24 02:08:25;;;;;;;6.73;6.13;;;;;;;;;;5093446;28;20748;-81
2023/06/24 02:10:53;;;;;;;12.27;6.40;;;;;;;;;;5099035;28;20287;-81
2023/06/24 02:13:21;;;;;;;7.77;6.73;;;;;;;;;;5113745;28;20195;-82
2023/06/24 02:15:48;;;;;;;6.97;6.27;;;;;;;;;;5113898;28;20200;-82
2023/06/24 02:18:17;;;;;;;7.87;7.07;;;;;;;;;;5113788;28;20204;-81
2023/06/24 02:20:44;;;;;;;7.10;6.40;;;;;;;;;;5100477;28;20211;-81
2023/06/24 02:23:13;;;;;;;7.67;6.40;;;;;;;;;;5100152;28;20287;-81
2023/06/24 02:25:41;;;;;;;6.70;6.10;;;;;;;;;;5099531;28;20204;-81
2023/06/24 02:28:08;;;;;;;7.03;6.30;;;;;;;;;;5100723;28;20625;-81
2023/06/24 02:30:36;;;;;;;7.33;6.00;;;;;;;;;;5093411;28;20685;-81
2023/06/24 02:33:03;;;;;;;8.50;6.03;;;;;;;;;;5093249;28;20283;-81
2023/06/24 02:35:30;;;;;;;7.13;6.43;;;;;;;;;;5100883;28;20204;-81
2023/06/24 02:37:56;;;;;;;7.80;6.37;;;;;;;;;;5112991;28;20674;-82
2023/06/24 02:40:25;;;;;;;8.23;6.57;;;;;;;;;;5111456;28;20561;-82
2023/06/24 02:42:51;;;;;;;7.20;6.47;;;;;;;;;;5111439;28;20575;-82
2023/06/24 02:45:19;;;;;;;7.17;6.57;;;;;;;;;;5079512;28;20639;-82
2023/06/24 02:47:47;;;;;;;7.50;6.70;;;;;;;;;;5102493;28;20214;-82
2023/06/24 02:50:14;;;;;;;7.07;6.40;;;;;;;;;;5101096;28;20220;-82
2023/06/24 02:52:41;;;;;;;9.80;6.43;;;;;;;;;;5085129;28;20216;-82
2023/06/24 02:55:09;;;;;;;7.70;6.67;;;;;;;;;;5108948;28;20196;-81
2023/06/24 02:57:39;;;;;;;7.60;6.40;;;;;;;;;;5085538;28;20641;-82
2023/06/24 03:00:08;;;;;;;7.37;6.77;;;;;;;;;;5099694;28;20951;-82
2023/06/24 03:02:35;;;;;;;6.87;6.10;;;;;;;;;;5101320;28;20196;-82
2023/06/24 03:05:02;;;;;;;7.80;6.37;;;;;;;;;;5106450;28;20212;-82
2023/06/24 03:07:30;;;;;;;11.80;6.47;;;;;;;;;;5104696;28;20210;-81
2023/06/24 03:09:57;;;;;;;6.97;6.47;;;;;;;;;;5099250;28;20220;-79
2023/06/24 03:12:24;;;;;;;9.53;6.37;;;;;;;;;;5109979;28;20204;-78
2023/06/24 03:14:52;;;;;;;7.03;6.43;;;;;;;;;;5105023;28;20209;-78
2023/06/24 03:17:19;;;;;;;6.63;6.03;;;;;;;;;;5093439;28;20211;-78
2023/06/24 03:19:46;;;;;;;9.57;7.17;;;;;;;;;;5104635;28;20263;-78
2023/06/24 03:22:12;;;;;;;7.23;6.63;;;;;;;;;;5107288;28;20252;-78
2023/06/24 03:24:39;;;;;;;6.70;5.90;;;;;;;;;;5112219;28;20674;-78
2023/06/24 03:27:06;;;;;;;11.37;6.20;;;;;;;;;;5107711;28;20215;-78
2023/06/24 03:29:33;;;;;;;6.77;6.17;;;;;;;;;;5104098;28;20210;-78
2023/06/24 03:32:01;;;;;;;7.17;6.57;;;;;;;;;;5112243;28;20219;-78
2023/06/24 03:34:27;;;;;;;7.13;6.37;;;;;;;;;;5112550;28;20199;-78
2023/06/24 03:36:55;;;;;;;9.90;7.07;;;;;;;;;;5098238;28;20322;-78
2023/06/24 03:39:22;;;;;;;7.30;6.60;;;;;;;;;;5099983;28;20307;-78
2023/06/24 03:41:48;;;;;;;9.67;6.93;;;;;;;;;;5105345;28;20195;-78
2023/06/24 03:44:16;;;;;;;7.67;5.97;;;;;;;;;;5104638;28;20215;-78
2023/06/24 03:46:43;;;;;;;6.93;6.23;;;;;;;;;;5098449;28;20208;-78
2023/06/24 03:49:11;;;;;;;7.07;6.37;;;;;;;;;;5098733;28;20675;-78
2023/06/24 03:51:37;;;;;;;7.10;6.47;;;;;;;;;;5105281;28;20284;-78
2023/06/24 03:54:04;;;;;;;7.37;6.10;;;;;;;;;;5105181;28;20196;-78
2023/06/24 03:56:31;;;;;;;7.50;6.80;;;;;;;;;;5091585;28;20352;-78
2023/06/24 03:58:58;;;;;;;9.27;6.13;;;;;;;;;;5091465;28;20211;-78
2023/06/24 04:01:24;;;;;;;8.33;7.17;;;;;;;;;;5098355;28;20214;-79
2023/06/24 04:03:51;;;;;;;7.57;6.87;;;;;;;;;;5111425;28;20600;-78
2023/06/24 04:06:19;;;;;;;7.63;6.13;;;;;;;;;;5097750;28;20211;-78
2023/06/24 04:08:48;;;;;;;10.43;6.93;;;;;;;;;;5110053;28;20236;-78
2023/06/24 04:11:15;;;;;;;8.37;7.60;;;;;;;;;;5096721;28;20255;-78
2023/06/24 04:13:42;;;;;;;7.60;6.90;;;;;;;;;;5110739;28;20285;-78
2023/06/24 04:16:08;;;;;;;9.40;7.53;;;;;;;;;;5097349;28;20204;-78
2023/06/24 04:18:39;;;;;;;9.10;7.40;;;;;;;;;;5101576;28;20219;-78
2023/06/24 04:21:06;;;;;;;7.53;6.83;;;;;;;;;;5106498;28;20236;-78
2023/06/24 04:23:34;;;;;;;8.67;7.53;;;;;;;;;;5108684;28;20252;-78
2023/06/24 04:26:01;;;;;;;7.43;6.80;;;;;;;;;;5091416;28;20281;-78
2023/06/24 04:28:28;;;;;;;8.50;6.50;;;;;;;;;;5093512;28;20262;-78
2023/06/24 04:30:57;;;;;;;7.07;6.47;;;;;;;;;;5101762;28;20220;-78
2023/06/24 04:33:24;;;;;;;6.93;6.03;;;;;;;;;;5094192;28;20211;-78
2023/06/24 04:35:52;;;;;;;8.23;7.43;;;;;;;;;;5111344;28;20226;-78
2023/06/24 04:38:18;;;;;;;7.03;6.43;;;;;;;;;;5110743;28;20282;-78
2023/06/24 04:40:47;;;;;;;7.10;6.50;;;;;;;;;;5111184;28;20207;-78
2023/06/24 04:43:13;;;;;;;7.83;6.00;;;;;;;;;;5107080;28;20976;-78
2023/06/24 04:45:40;;;;;;;6.73;6.13;;;;;;;;;;5101819;28;20339;-78
2023/06/24 04:48:07;;;;;;;7.13;6.43;;;;;;;;;;5093405;28;20197;-78
2023/06/24 04:50:33;;;;;;;7.90;7.20;;;;;;;;;;5090855;28;20232;-78
2023/06/24 04:53:01;;;;;;;7.33;6.67;;;;;;;;;;5090904;28;20579;-78
2023/06/24 04:55:29;;;;;;;8.33;7.33;;;;;;;;;;5102260;28;20235;-78
2023/06/24 04:57:57;;;;;;;8.30;7.27;;;;;;;;;;5091974;28;20200;-78
2023/06/24 05:00:24;;;;;;;8.30;7.50;;;;;;;;;;5090782;28;20200;-78
2023/06/24 05:02:51;;;;;;;8.53;7.03;;;;;;;;;;5103582;28;20641;-78
2023/06/24 05:05:18;;;;;;;8.37;7.60;;;;;;;;;;5091085;28;20218;-78
2023/06/24 05:07:45;;;;;;;8.00;7.30;;;;;;;;;;5096943;28;20208;-78
2023/06/24 05:10:12;;;;;;;9.57;7.03;;;;;;;;;;5097992;28;20200;-78
2023/06/24 05:12:39;;;;;;;10.20;7.67;;;;;;;;;;5097189;28;20207;-78
2023/06/24 05:15:09;;;;;;;7.90;7.17;;;;;;;;;;5096800;28;20196;-79
2023/06/24 05:17:35;;;;;;;8.40;7.60;;;;;;;;;;5097859;28;20203;-79
2023/06/24 05:20:03;;;;;;;8.83;7.30;;;;;;;;;;5114259;28;20214;-79
2023/06/24 05:22:30;;;;;;;8.13;7.43;;;;;;;;;;5106383;28;20216;-79
2023/06/24 05:24:57;;;;;;;8.10;7.30;;;;;;;;;;5109689;28;20214;-79
2023/06/24 05:27:23;;;;;;;8.43;7.73;;;;;;;;;;5114961;28;20203;-79
2023/06/24 05:29:50;;;;;;;8.00;7.30;;;;;;;;;;5114154;28;20207;-79
2023/06/24 05:32:20;;;;;;;8.13;7.33;;;;;;;;;;5101845;28;20291;-79
2023/06/24 05:34:46;;;;;;;11.63;9.23;;;;;;;;;;5113366;28;20207;-79
2023/06/24 05:37:13;;;;;;;12.17;7.90;;;;;;;;;;5094615;28;20795;-79
2023/06/24 05:39:40;;;;;;;9.13;7.80;;;;;;;;;;5108009;28;20199;-79
2023/06/24 05:42:07;;;;;;;11.30;8.83;;;;;;;;;;5094460;28;20201;-79
2023/06/24 05:44:34;;;;;;;12.03;9.10;;;;;;;;;;5107931;28;20199;-79
2023/06/24 05:47:01;;;;;;;10.67;9.63;;;;;;;;;;5102747;28;20214;-79
2023/06/24 05:49:29;;;;;;;9.90;9.00;;;;;;;;;;5099005;28;20196;-79
2023/06/24 05:51:56;;;;;;;12.63;9.27;;;;;;;;;;5102866;28;20235;-79
2023/06/24 05:54:23;;;;;;;8.53;7.73;;;;;;;;;;5111651;28;20204;-78
2023/06/24 05:56:50;;;;;;;10.77;8.63;;;;;;;;;;5103764;28;20264;-79
2023/06/24 05:59:18;;;;;;;10.10;9.17;;;;;;;;;;5100690;28;20195;-79
2023/06/24 06:01:44;;;;;;;9.37;8.57;;;;;;;;;;5103431;28;20208;-82
2023/06/24 06:04:11;;;;;;;11.60;9.03;;;;;;;;;;5111159;28;20192;-80
2023/06/24 06:06:39;;;;;;;9.20;8.40;;;;;;;;;;5104002;28;20196;-81
2023/06/24 06:09:06;;;;;;;10.30;9.27;;;;;;;;;;5107715;28;20208;-80
2023/06/24 06:11:33;;;;;;;10.73;7.33;;;;;;;;;;5104598;28;20318;-80
2023/06/24 06:14:00;;;;;;;8.30;7.60;;;;;;;;;;5097431;28;20208;-80
2023/06/24 06:16:28;;;;;;;14.33;7.50;;;;;;;;;;5111905;28;20265;-80
2023/06/24 06:18:55;;;;;;;7.50;6.80;;;;;;;;;;5102718;28;20204;-80
2023/06/24 06:21:21;;;;;;;5.70;5.20;;;;;;;;;;5111053;28;20272;-80
2023/06/24 06:23:49;;;;;;;6.63;5.80;;;;;;;;;;5102700;28;20196;-80
2023/06/24 06:26:16;;;;;;;6.77;6.17;;;;;;;;;;5105244;28;20198;-80
2023/06/24 06:28:43;;;;;;;7.23;6.10;;;;;;;;;;5095018;28;20249;-80
2023/06/24 06:31:10;;;;;;;5.33;4.93;;;;;;;;;;5104547;28;20220;-81
2023/06/24 06:33:38;;;;;;;5.80;5.07;;;;;;;;;;5099388;28;20223;-80
2023/06/24 06:36:05;;;;;;;7.17;5.90;;;;;;;;;;5111302;28;20604;-80
2023/06/24 06:38:33;;;;;;;6.23;5.27;;;;;;;;;;5113885;28;20196;-80
2023/06/24 06:41:01;;;;;;;5.30;4.90;;;;;;;;;;5108519;28;20207;-80
2023/06/24 06:43:28;;;;;;;5.00;4.60;;;;;;;;;;5103269;28;20206;-80
2023/06/24 06:45:59;;;;;;;6.07;5.57;;;;;;;;;;5099665;28;20196;-81
2023/06/24 06:48:25;;;;;;;5.97;5.23;;;;;;;;;;5102667;28;20201;-81
2023/06/24 06:50:53;;;;;;;7.03;5.33;;;;;;;;;;5106376;28;20228;-81
2023/06/24 06:53:19;;;;;;;6.00;5.40;;;;;;;;;;5103249;28;20566;-81
2023/06/24 06:55:46;;;;;;;7.23;5.50;;;;;;;;;;5099632;28;20222;-81
2023/06/24 06:58:14;;;;;;;5.70;5.27;;;;;;;;;;5110655;28;20207;-80
2023/06/24 07:00:41;;;;;;;7.63;5.70;;;;;;;;;;5093248;28;20200;-80
2023/06/24 07:03:08;;;;;;;6.07;5.47;;;;;;;;;;5101232;28;20204;-81
2023/06/24 07:05:35;;;;;;;6.47;5.70;;;;;;;;;;5106177;28;20207;-80
2023/06/24 07:08:01;;;;;;;6.20;5.60;;;;;;;;;;5099946;28;20200;-81
2023/06/24 07:10:28;;;;;;;6.40;5.80;;;;;;;;;;5092890;28;20196;-81
2023/06/24 07:12:57;;;;;;;9.50;6.67;;;;;;;;;;5106662;28;20224;-81
2023/06/24 07:15:26;;;;;;;5.67;5.10;;;;;;;;;;5102554;28;20208;-78
2023/06/24 07:17:53;;;;;;;7.87;5.53;;;;;;;;;;5104033;28;20423;-78
2023/06/24 07:20:20;;;;;;;5.63;5.03;;;;;;;;;;5109583;28;20283;-78
2023/06/24 07:22:46;;;;;;;6.27;5.67;;;;;;;;;;5110878;28;20746;-78
2023/06/24 07:25:13;;;;;;;8.77;5.82;;;;;;;;;;5094733;28;20258;-78
2023/06/24 07:27:40;;;;;;;9.15;6.05;;;;;;;;;;5099997;28;20208;-78
2023/06/24 07:30:08;;;;;;;10.98;6.93;;;;;;;;;;5095382;28;20662;-78
2023/06/24 07:32:36;;;;;;;5.93;5.43;;;;;;;;;;5091882;28;20246;-78
2023/06/24 07:35:04;;;;;;;6.50;5.43;;;;;;;;;;5094245;28;20235;-78
2023/06/24 07:37:30;;;;;;;5.30;4.80;;;;;;;;;;5106286;28;20631;-78
2023/06/24 07:39:57;;;;;;;5.40;4.90;;;;;;;;;;5098472;28;20230;-78
2023/06/24 07:42:24;;;;;;;5.60;5.18;;;;;;;;;;5095412;28;20212;-78
2023/06/24 07:44:51;;;;;;;8.75;5.00;;;;;;;;;;5091982;28;20633;-78
2023/06/24 07:47:18;;;;;;;6.68;6.10;;;;;;;;;;5093208;28;20207;-78
2023/06/24 07:49:46;;;;;;;7.00;5.35;;;;;;;;;;5107246;28;20314;-78
2023/06/24 07:52:13;;;;;;;10.68;5.43;;;;;;;;;;5098942;28;20235;-78
2023/06/24 07:54:39;;;;;;;4.53;4.13;;;;;;;;;;5107184;28;20252;-78
2023/06/24 07:57:08;;;;;;;5.20;4.68;;;;;;;;;;5103423;28;20201;-78
2023/06/24 07:59:35;;;;;;;5.10;4.70;;;;;;;;;;5103148;28;20200;-78
2023/06/24 08:02:01;;;;;;;5.22;4.82;;;;;;;;;;5101898;28;20203;-78
2023/06/24 08:04:28;;;;;;;4.40;4.10;;;;;;;;;;5110351;28;20316;-80
2023/06/24 08:06:57;;;;;;;4.63;4.22;;;;;;;;;;5103049;28;20265;-79
2023/06/24 08:09:23;;;;;;;4.82;4.32;;;;;;;;;;5100012;28;20203;-78
2023/06/24 08:11:50;;;;;;;6.00;5.13;;;;;;;;;;5107350;28;20284;-79
2023/06/24 08:14:17;;;;;;;5.78;5.20;;;;;;;;;;5111661;28;20593;-79
2023/06/24 08:16:44;;;;;;;5.00;4.47;;;;;;;;;;5111647;28;20639;-80
2023/06/24 08:19:10;;;;;;;9.48;5.13;;;;;;;;;;5111214;28;20645;-79
2023/06/24 08:21:37;;;;;;;6.05;5.55;;;;;;;;;;5111714;28;20264;-80
2023/06/24 08:24:08;;;;;;;6.35;5.68;;;;;;;;;;5111282;28;20666;-79
2023/06/24 08:26:34;;;;;;;6.15;5.32;;;;;;;;;;5111867;28;20200;-80
2023/06/24 08:29:01;;;;;;;5.13;4.72;;;;;;;;;;5111295;28;20635;-80
2023/06/24 08:31:28;;;;;;;7.15;5.40;;;;;;;;;;5111040;28;20200;-80
2023/06/24 08:33:55;;;;;;;6.22;5.30;;;;;;;;;;5103013;28;20200;-80
2023/06/24 08:36:23;;;;;;;6.95;6.20;;;;;;;;;;5091291;28;20208;-79
2023/06/24 08:38:50;;;;;;;5.97;5.22;;;;;;;;;;5100406;28;20286;-79
2023/06/24 08:41:18;;;;;;;5.70;5.20;;;;;;;;;;5111657;28;20199;-80
2023/06/24 08:43:45;;;;;;;5.53;5.13;;;;;;;;;;5111167;28;20217;-80
2023/06/24 08:46:12;;;;;;;5.35;4.82;;;;;;;;;;5111556;28;20191;-80
2023/06/24 08:48:40;;;;;;;5.85;5.25;;;;;;;;;;5110458;28;20685;-80
2023/06/24 08:51:09;;;;;;;5.70;5.20;;;;;;;;;;5101075;28;20262;-79
2023/06/24 08:53:37;;;;;;;5.70;5.20;;;;;;;;;;5111078;28;20227;-79
2023/06/24 08:56:04;;;;;;;6.20;5.60;;;;;;;;;;5097306;28;20204;-79
2023/06/24 08:58:32;;;;;;;5.82;5.32;;;;;;;;;;5111156;28;20207;-79
2023/06/24 09:00:59;;;;;;;10.65;5.95;;;;;;;;;;5110683;28;20206;-79
2023/06/24 09:03:25;;;;;;;6.60;5.90;;;;;;;;;;5097587;28;20200;-79
2023/06/24 09:05:52;;;;;;;8.88;5.45;;;;;;;;;;5110652;28;20199;-79
2023/06/24 09:08:21;;;;;;;5.75;5.07;;;;;;;;;;5097775;28;20203;-79
2023/06/24 09:10:54;;;;;;;6.32;5.47;;;;;;;;;;5097521;28;20199;-79
2023/06/24 09:13:22;;;;;;;5.63;4.93;;;;;;;;;;5095874;28;20224;-79
2023/06/24 09:15:52;;;;;;;7.03;5.95;;;;;;;;;;5090209;28;20228;-79
2023/06/24 09:18:19;;;;;;;6.03;5.43;;;;;;;;;;5104150;28;20203;-79
2023/06/24 09:20:51;;;;;;;7.32;5.10;;;;;;;;;;5090554;28;20207;-79
2023/06/24 09:23:18;;;;;;;11.38;6.35;;;;;;;;;;5093489;28;20196;-79
2023/06/24 09:25:45;;;;;;;7.93;6.05;;;;;;;;;;5111382;28;20282;-79
2023/06/24 09:28:14;;;;;;;9.88;5.75;;;;;;;;;;5110031;28;20268;-79
2023/06/24 09:30:41;;;;;;;6.00;5.50;;;;;;;;;;5103099;28;20204;-80
2023/06/24 09:33:12;;;;;;;6.18;5.57;;;;;;;;;;5104012;28;20291;-80
2023/06/24 09:35:39;;;;;;;6.30;5.63;;;;;;;;;;5099948;28;20208;-79
2023/06/24 09:38:10;;;;;;;5.28;4.78;;;;;;;;;;5108152;28;20207;-80
2023/06/24 09:40:37;;;;;;;6.80;5.55;;;;;;;;;;5100472;28;20696;-80
2023/06/24 09:43:04;;;;;;;6.40;5.63;;;;;;;;;;5096947;28;20596;-79
2023/06/24 09:45:31;;;;;;;6.78;5.72;;;;;;;;;;5100459;28;20211;-79
2023/06/24 09:47:58;;;;;;;6.75;6.07;;;;;;;;;;5106867;28;20211;-80
2023/06/24 09:50:27;;;;;;;7.38;5.72;;;;;;;;;;5110732;28;20280;-80
2023/06/24 09:52:54;;;;;;;7.00;5.75;;;;;;;;;;5096393;28;20227;-80
2023/06/24 09:55:21;;;;;;;7.93;5.65;;;;;;;;;;5100029;28;20207;-80
2023/06/24 09:57:48;;;;;;;6.50;5.30;;;;;;;;;;5094634;28;20188;-79
2023/06/24 10:00:16;;;;;;;6.10;5.28;;;;;;;;;;5099176;28;20196;-80
2023/06/24 10:02:43;;;;;;;5.20;4.70;;;;;;;;;;5108540;28;20200;-80
2023/06/24 10:05:10;;;;;;;5.30;4.80;;;;;;;;;;5110879;28;20260;-79
2023/06/24 10:07:40;;;;;;;6.07;5.57;;;;;;;;;;5108610;28;20676;-80
2023/06/24 10:10:08;;;;;;;6.22;5.57;;;;;;;;;;5106330;28;20199;-79
2023/06/24 10:12:36;;;;;;;10.45;5.88;;;;;;;;;;5108083;28;20224;-80
2023/06/24 10:15:04;;;;;;;6.35;5.75;;;;;;;;;;5097146;28;20627;-80
2023/06/24 10:17:31;;;;;;;5.25;4.80;;;;;;;;;;5109012;28;20593;-79
2023/06/24 10:19:57;;;;;;;6.50;5.35;;;;;;;;;;5095466;28;20204;-79
2023/06/24 10:22:25;;;;;;;6.00;5.50;;;;;;;;;;5102851;28;20207;-80
2023/06/24 10:24:54;;;;;;;8.73;5.63;;;;;;;;;;5099834;28;20212;-79
2023/06/24 10:27:22;;;;;;;6.13;5.63;;;;;;;;;;5092905;28;20200;-80
2023/06/24 10:29:50;;;;;;;5.95;5.40;;;;;;;;;;5106857;28;20286;-79
2023/06/24 10:32:18;;;;;;;6.53;5.85;;;;;;;;;;5100112;28;20230;-80
2023/06/24 10:34:46;;;;;;;6.78;6.18;;;;;;;;;;5113866;28;20200;-80
2023/06/24 10:37:14;;;;;;;5.90;5.40;;;;;;;;;;5113976;28;20253;-80
2023/06/24 10:39:54;;;;;;;6.95;5.53;;;;;;;;;;5106226;28;20215;-79
2023/06/24 10:42:33;;;;;;;6.90;5.47;;;;;;;;;;5098567;28;20204;-79
2023/06/24 10:45:01;;;;;;;6.53;5.88;;;;;;;;;;5093405;28;20261;-80
2023/06/24 10:47:28;;;;;;;5.88;5.35;;;;;;;;;;5106416;28;20257;-79
2023/06/24 10:49:55;;;;;;;7.07;5.20;;;;;;;;;;5106967;28;20203;-79
2023/06/24 10:52:23;;;;;;;6.25;5.70;;;;;;;;;;5072680;28;20228;-79
2023/06/24 10:54:51;;;;;;;5.93;5.43;;;;;;;;;;5072492;28;20201;-79
2023/06/24 10:57:24;;;;;;;5.28;4.78;;;;;;;;;;5072699;28;20209;-80
2023/06/24 10:59:51;;;;;;;6.13;5.53;;;;;;;;;;5072916;28;20259;-79
2023/06/24 11:02:19;;;;;;;6.95;5.78;;;;;;;;;;5072205;28;20631;-79
2023/06/24 11:04:46;;;;;;;6.60;6.00;;;;;;;;;;5072114;28;20201;-80
2023/06/24 11:07:13;;;;;;;5.75;5.35;;;;;;;;;;5072479;28;20205;-79
2023/06/24 11:09:41;;;;;;;6.55;6.00;;;;;;;;;;5072830;28;20209;-79
2023/06/24 11:12:12;;;;;;;6.85;6.25;;;;;;;;;;5072238;28;20208;-78
2023/06/24 11:14:41;;;;;;;7.20;6.60;;;;;;;;;;5072323;28;20247;-78
2023/06/24 11:17:08;;;;;;;6.45;5.78;;;;;;;;;;5071962;28;20209;-78
2023/06/24 11:19:38;;;;;;;7.57;6.05;;;;;;;;;;5072081;28;20258;-78
2023/06/24 11:22:06;;;;;;;6.30;5.70;;;;;;;;;;5072083;28;20267;-78
2023/06/24 11:24:33;;;;;;;6.82;6.20;;;;;;;;;;5072025;28;20201;-78
2023/06/24 11:27:00;;;;;;;7.15;6.45;;;;;;;;;;5071680;28;20205;-78
2023/06/24 11:29:30;;;;;;;5.65;5.20;;;;;;;;;;5071657;28;20205;-78
2023/06/24 11:32:01;;;;;;;6.93;6.30;;;;;;;;;;5072036;28;20292;-78
2023/06/24 11:34:28;;;;;;;6.70;5.88;;;;;;;;;;5071905;28;20618;-78
2023/06/24 11:36:55;;;;;;;6.45;5.90;;;;;;;;;;5071985;28;20582;-78
2023/06/24 11:39:23;;;;;;;6.32;5.82;;;;;;;;;;5071663;28;20212;-78
2023/06/24 11:41:50;;;;;;;6.55;6.05;;;;;;;;;;5071480;28;20206;-78
2023/06/24 11:44:18;;;;;;;6.05;5.60;;;;;;;;;;5072052;28;20209;-78
2023/06/24 11:46:45;;;;;;;6.97;6.28;;;;;;;;;;5058434;28;20205;-78
2023/06/24 11:49:16;;;;;;;8.43;6.32;;;;;;;;;;5071543;28;20205;-79
2023/06/24 11:51:48;;;;;;;7.80;7.03;;;;;;;;;;5100983;28;20632;-78
2023/06/24 11:54:16;;;;;;;7.68;6.53;;;;;;;;;;5103029;28;20311;-78
2023/06/24 11:56:43;;;;;;;6.78;6.18;;;;;;;;;;5103129;28;20200;-78
2023/06/24 11:59:18;;;;;;;8.25;6.55;;;;;;;;;;5104947;28;20677;-79
2023/06/24 12:01:45;;;;;;;6.82;6.10;;;;;;;;;;5091982;28;20287;-78
2023/06/24 12:04:13;;;;;;;7.90;6.70;;;;;;;;;;5091454;28;20207;-80
2023/06/24 12:06:41;;;;;;;6.57;5.97;;;;;;;;;;5091502;28;20204;-78
2023/06/24 12:09:09;;;;;;;7.32;6.10;;;;;;;;;;5110022;28;20282;-78
2023/06/24 12:11:37;;;;;;;6.72;6.20;;;;;;;;;;5099661;28;20223;-78
2023/06/24 12:14:04;;;;;;;10.13;5.68;;;;;;;;;;5110561;28;20223;-78
2023/06/24 12:16:31;;;;;;;6.00;5.38;;;;;;;;;;5111656;28;20592;-78
2023/06/24 12:18:57;;;;;;;6.57;5.97;;;;;;;;;;5091258;28;20204;-78
2023/06/24 12:21:24;;;;;;;5.97;5.47;;;;;;;;;;5104645;28;20203;-78
2023/06/24 12:23:52;;;;;;;7.53;5.57;;;;;;;;;;5104758;28;20196;-78
2023/06/24 12:26:19;;;;;;;6.45;5.93;;;;;;;;;;5102946;28;20682;-78
2023/06/24 12:28:46;;;;;;;6.85;6.25;;;;;;;;;;5097510;28;20233;-78
2023/06/24 12:31:12;;;;;;;6.82;6.22;;;;;;;;;;5111339;28;20200;-79
2023/06/24 12:33:39;;;;;;;8.25;6.40;;;;;;;;;;5091903;28;20774;-78
2023/06/24 12:36:07;;;;;;;6.57;5.97;;;;;;;;;;5091024;28;20212;-78
2023/06/24 12:38:39;;;;;;;6.93;5.82;;;;;;;;;;5104329;28;20204;-78
2023/06/24 12:41:11;;;;;;;6.43;5.95;;;;;;;;;;5104809;28;20276;-78
2023/06/24 12:43:37;;;;;;;6.68;5.97;;;;;;;;;;5098752;28;20214;-78
2023/06/24 12:46:04;;;;;;;6.63;6.03;;;;;;;;;;5096319;28;20301;-78
2023/06/24 12:48:31;;;;;;;6.88;6.38;;;;;;;;;;5099357;28;20200;-77
2023/06/24 12:50:57;;;;;;;7.15;6.43;;;;;;;;;;5109450;28;20223;-78
2023/06/24 12:53:24;;;;;;;6.60;6.00;;;;;;;;;;5098932;28;20276;-78
2023/06/24 12:55:51;;;;;;;6.88;6.28;;;;;;;;;;5109420;28;20260;-78
2023/06/24 12:58:23;;;;;;;7.68;6.10;;;;;;;;;;5099781;28;20219;-78
2023/06/24 13:00:50;;;;;;;17.23;6.22;;;;;;;;;;5107955;28;20192;-77
2023/06/24 13:03:17;;;;;;;7.13;6.22;;;;;;;;;;5100690;28;20257;-78
2023/06/24 13:05:44;;;;;;;6.80;6.20;;;;;;;;;;5097718;28;20203;-78
2023/06/24 13:08:15;;;;;;;7.10;5.95;;;;;;;;;;5100596;28;20196;-78
2023/06/24 13:10:42;;;;;;;6.32;5.82;;;;;;;;;;5095165;28;20290;-80
2023/06/24 13:13:10;;;;;;;13.05;7.45;;;;;;;;;;5100017;28;20672;-78
2023/06/24 13:15:38;;;;;;;6.00;5.47;;;;;;;;;;5108929;28;20290;-78
2023/06/24 13:18:05;;;;;;;6.93;5.95;;;;;;;;;;5111193;28;20260;-78
2023/06/24 13:20:32;;;;;;;6.45;5.85;;;;;;;;;;5110837;28;20502;-77
2023/06/24 13:22:59;;;;;;;6.25;5.65;;;;;;;;;;5110589;28;20210;-78
2023/06/24 13:25:26;;;;;;;8.65;6.32;;;;;;;;;;5095683;28;20211;-78
2023/06/24 13:27:53;;;;;;;8.25;5.95;;;;;;;;;;5099512;28;20207;-77
2023/06/24 13:30:19;;;;;;;7.20;6.07;;;;;;;;;;5104268;28;20555;-78
2023/06/24 13:32:49;;;;;;;6.80;6.10;;;;;;;;;;5101993;28;20203;-78
2023/06/24 13:35:15;;;;;;;6.50;5.97;;;;;;;;;;5097059;28;20220;-78
2023/06/24 13:37:43;;;;;;;7.63;6.53;;;;;;;;;;5098123;28;20258;-78
2023/06/24 13:40:10;;;;;;;9.35;6.47;;;;;;;;;;5106061;28;20656;-77
2023/06/24 13:42:37;;;;;;;6.28;5.75;;;;;;;;;;5106547;28;20212;-78
2023/06/24 13:45:05;;;;;;;6.47;5.97;;;;;;;;;;5100394;28;20195;-78
2023/06/24 13:47:32;;;;;;;6.10;5.60;;;;;;;;;;5114527;28;20199;-77
2023/06/24 13:50:00;;;;;;;8.25;7.45;;;;;;;;;;5114526;28;20226;-77
2023/06/24 13:52:27;;;;;;;6.70;6.07;;;;;;;;;;5110438;28;20746;-77
2023/06/24 13:54:59;;;;;;;5.85;5.35;;;;;;;;;;5101325;28;20234;-77
2023/06/24 13:57:26;;;;;;;6.25;5.72;;;;;;;;;;5113895;28;20608;-77
2023/06/24 13:59:53;;;;;;;5.93;5.40;;;;;;;;;;5108897;28;20568;-77
2023/06/24 14:02:20;;;;;;;6.95;6.28;;;;;;;;;;5106111;28;20692;-77
2023/06/24 14:04:48;;;;;;;6.15;5.72;;;;;;;;;;5095002;28;20200;-78
2023/06/24 14:07:18;;;;;;;5.90;5.50;;;;;;;;;;5093381;28;20291;-77
2023/06/24 14:09:45;;;;;;;6.38;5.97;;;;;;;;;;5113753;28;20635;-78
2023/06/24 14:12:11;;;;;;;7.25;5.85;;;;;;;;;;5113095;28;20846;-77
2023/06/24 14:14:38;;;;;;;6.82;6.22;;;;;;;;;;5100136;28;20234;-76
2023/06/24 14:17:09;;;;;;;6.60;5.70;;;;;;;;;;5099897;28;20261;-76
2023/06/24 14:19:37;;;;;;;6.05;5.63;;;;;;;;;;5083736;28;20206;-77
2023/06/24 14:22:05;;;;;;;7.63;5.80;;;;;;;;;;5113200;28;20264;-77
2023/06/24 14:24:37;;;;;;;5.93;5.50;;;;;;;;;;5085236;28;20658;-76
2023/06/24 14:27:05;;;;;;;5.68;5.07;;;;;;;;;;5110894;28;20704;-76
2023/06/24 14:29:32;;;;;;;6.70;5.97;;;;;;;;;;5095605;28;20195;-76
2023/06/24 14:31:59;;;;;;;6.30;5.70;;;;;;;;;;5082066;28;20202;-76
2023/06/24 14:34:29;;;;;;;6.97;5.63;;;;;;;;;;5113097;28;20227;-77
2023/06/24 14:36:59;;;;;;;5.43;4.97;;;;;;;;;;5113360;28;20204;-76
2023/06/24 14:39:26;;;;;;;6.90;6.30;;;;;;;;;;5100820;28;20201;-77
2023/06/24 14:41:54;;;;;;;6.03;5.50;;;;;;;;;;5079973;28;20201;-77
2023/06/24 14:44:21;;;;;;;6.43;5.53;;;;;;;;;;5106257;28;20203;-77
2023/06/24 14:46:48;;;;;;;6.05;5.40;;;;;;;;;;5092430;28;20246;-77